Meteo Giornale » Osservazioni meteo Turkmenistan » Mary
ore: 20:00 - Osservazioni Meteo Mary
Lat. 37° 37' N Lon. 61° 54' E Alt. 222 metri s.l.m.
32 °C
Sereno
Temp. 24 Ore
25 °C
37 °C
Nord
18.5 Km/h
Dew point 12 °C
Umidità 29 %
Visibilità 6 Km
Il sole sorge alle ore 06:21
Il sole tramonta alle ore 19:23
| Data e Ora | Cielo e Fenomeni | T °C | DP °C | Um. % | Pres. hPa | Vis. km | Vento km/h | |
|---|---|---|---|---|---|---|---|---|
| Oggi h: 20:00 | Sereno | 32 | 12 | 29 | 1010 | 6 | N 18.5 | |
| Oggi h: 19:00 | Sereno | 34 | 10 | 23 | 1009 | 10 | N 14.8 | |
| Oggi h: 18:00 | Sereno | 36 | 9 | 19 | 1009 | 10 | N 18.5 | |
| Oggi h: 17:00 | Sereno | 36 | 10 | 20 | 1009 | 10 | N 22.2 | |
| Oggi h: 16:00 | Sereno | 37 | 9 | 18 | 1009 | 10 | N 22.2 | |
| Oggi h: 15:00 | Sereno | 37 | 12 | 22 | 1010 | 10 | N/NE 22.2 | |
| Oggi h: 14:00 | Sereno | 36 | 9 | 19 | 1010 | 10 | N 22.2 | |
| Oggi h: 13:00 | Sereno | 35 | 9 | 20 | 1011 | 10 | N 22.2 | |
| Oggi h: 12:00 | Sereno | 34 | 12 | 26 | 1011 | 10 | N 14.8 | |
| Oggi h: 11:00 | Sereno | 32 | 12 | 29 | 1012 | 10 | N 22.2 | |
| Oggi h: 10:00 | Sereno | 30 | 13 | 35 | 1011 | 10 | N 18.5 | |
| Oggi h: 09:00 | Sereno | 28 | 14 | 42 | 1011 | 10 | N 18.5 | |
| Oggi h: 08:00 | Sereno | 26 | 15 | 50 | 1010 | 10 | N 14.8 | |
| Oggi h: 07:00 | Sereno | 26 | 14 | 47 | 1010 | 10 | N/NO 14.8 | |
| Oggi h: 06:00 | Sereno | 25 | 15 | 53 | 1010 | 10 | N/NO 11.1 | |
| Oggi h: 05:00 | Sereno | 27 | 15 | 47 | 1009 | 6 | N 11.1 | |
| Oggi h: 04:00 | Sereno | 29 | 15 | 42 | 1009 | 6 | N/NO 14.8 | |
| Oggi h: 03:00 | Sereno | 30 | 15 | 40 | 1009 | 6 | NO 18.5 | |
| Oggi h: 02:00 | Sereno | 31 | 17 | 43 | 1009 | 6 | NO 18.5 | |
| Oggi h: 01:00 | Sereno | 31 | 17 | 43 | 1009 | 6 | N/NO 18.5 | |
| Oggi h: 00:00 | Sereno | 32 | 17 | 40 | 1008 | 6 | NO 14.8 | |
| Ieri h: 23:00 | Sereno | 33 | 16 | 36 | 1008 | 6 | NO 14.8 | |
| Ieri h: 22:00 | Sereno | 33 | 17 | 38 | 1008 | 6 | NO 14.8 | |
| Ieri h: 21:00 | Sereno | 34 | 16 | 34 | 1007 | 6 | O/NO 14.8 | |



